Terminal Aerodrome Forecast
Issued by NWS

Home | Current Version | Previous Version | Text Only | Print | Product List | Glossary On
Versions: 1 2 3 4 5 6 7 8 9 10 11 12 13
766
FTUS46 KMTR 061137
TAFOAK
TAF
KOAK 061137Z 0612/0718 08005KT P6SM FEW200
      TEMPO 0612/0616 5SM BR
     FM061800 25007KT P6SM SCT200
     FM061900 29008KT P6SM SCT200
     FM070300 33005KT P6SM FEW200
     FM070800 VRB03KT 6SM BR SKC
     FM071600 09004KT 6SM HZ SKC=

USA.gov is the U.S. government's official web portal to all federal, state and local government web resources and services.